Time;durP1;ratioP1;P1;durP2;ratioP2;P2;SDS_P1;SDS_P2;PMS_P1;PMS_P2;Temp;Humidity;BMP_temperature;BMP_pressure;BME280_temperature;BME280_humidity;BME280_pressure;Samples;Min_cycle;Max_cycle;Signal;HPM_P1;HPM_P2
2021/08/25 00:01:56;;;;;;;0.90;0.90;;;;;;;16.57;91.73;98200.09;5051296;28;20056;-74
2021/08/25 00:04:22;;;;;;;0.57;0.57;;;;;;;16.59;92.12;98203.38;5051801;28;20440;-75
2021/08/25 00:06:47;;;;;;;3.45;0.75;;;;;;;16.56;89.41;98206.78;5051872;28;20060;-76
2021/08/25 00:09:13;;;;;;;0.65;0.52;;;;;;;16.56;89.25;98195.75;5052021;28;20059;-76
2021/08/25 00:11:38;;;;;;;0.70;0.70;;;;;;;16.57;90.88;98200.09;5051923;28;20112;-76
2021/08/25 00:14:03;;;;;;;3.33;0.63;;;;;;;16.63;91.29;98209.06;5050722;28;20029;-76
2021/08/25 00:16:29;;;;;;;0.70;0.60;;;;;;;16.58;90.56;98212.78;5051950;28;20115;-75
2021/08/25 00:18:54;;;;;;;0.70;0.65;;;;;;;16.57;88.12;98210.38;5052124;28;20032;-74
2021/08/25 00:21:20;;;;;;;2.13;0.82;;;;;;;16.51;89.14;98211.63;5051835;28;20083;-74
2021/08/25 00:23:45;;;;;;;1.23;0.95;;;;;;;16.54;87.33;98210.97;5032889;28;20549;-77
2021/08/25 00:26:10;;;;;;;0.95;0.80;;;;;;;16.49;88.00;98211.13;5051830;28;20025;-77
2021/08/25 00:28:36;;;;;;;0.50;0.50;;;;;;;16.42;87.52;98216.34;5049303;28;20025;-78
2021/08/25 00:31:05;;;;;;;5.20;0.90;;;;;;;16.36;87.79;98212.13;5044992;28;20449;-78
2021/08/25 00:33:30;;;;;;;1.60;0.80;;;;;;;16.35;87.58;98203.03;5050790;28;20111;-76
2021/08/25 00:35:58;;;;;;;1.17;1.08;;;;;;;16.33;86.73;98198.97;5051453;28;20020;-77
2021/08/25 00:38:24;;;;;;;0.52;0.52;;;;;;;16.38;87.04;98209.88;5049897;28;20033;-76
2021/08/25 00:40:49;;;;;;;1.08;0.80;;;;;;;16.32;87.43;98191.84;5050938;28;20035;-75
2021/08/25 00:43:14;;;;;;;0.75;0.75;;;;;;;16.34;88.02;98211.66;5050949;28;20124;-76
2021/08/25 00:45:45;;;;;;;1.27;0.98;;;;;;;16.36;88.62;98214.88;5050868;28;20462;-76
2021/08/25 00:48:17;;;;;;;1.48;0.88;;;;;;;16.45;88.66;98208.22;5051220;28;20016;-75
2021/08/25 00:50:48;;;;;;;0.77;0.70;;;;;;;16.51;87.86;98206.09;5049645;28;20543;-75
2021/08/25 00:53:14;;;;;;;0.93;0.70;;;;;;;16.44;88.76;98211.31;5050739;28;20084;-75
2021/08/25 00:55:41;;;;;;;1.30;0.93;;;;;;;16.45;85.00;98199.13;5050475;28;20119;-76
2021/08/25 00:58:08;;;;;;;3.13;0.75;;;;;;;16.52;81.46;98216.00;5050917;28;20021;-75
2021/08/25 01:00:41;;;;;;;2.47;0.98;;;;;;;16.44;79.77;98206.63;5050761;28;20025;-75
2021/08/25 01:03:17;;;;;;;1.23;0.80;;;;;;;16.52;79.70;98207.72;5047686;28;20028;-77
2021/08/25 01:05:44;;;;;;;5.80;0.95;;;;;;;16.42;80.23;98203.34;5048027;28;20040;-74
2021/08/25 01:08:12;;;;;;;0.98;0.82;;;;;;;16.55;80.58;98205.16;5050680;28;20028;-74
2021/08/25 01:10:38;;;;;;;1.13;0.85;;;;;;;16.47;80.44;98210.66;5030089;28;20025;-77
2021/08/25 01:13:05;;;;;;;3.40;0.98;;;;;;;16.44;80.36;98195.56;5054519;28;20025;-76
2021/08/25 01:15:36;;;;;;;0.68;0.65;;;;;;;16.49;81.48;98198.16;5055322;28;20472;-75
2021/08/25 01:18:04;;;;;;;1.33;0.80;;;;;;;16.51;80.43;98197.81;5050749;28;20040;-75
2021/08/25 01:20:31;;;;;;;2.28;0.95;;;;;;;16.52;80.97;98207.72;5050656;28;20036;-76
2021/08/25 01:22:58;;;;;;;1.75;0.98;;;;;;;16.46;77.28;98198.00;5049096;28;20016;-75
2021/08/25 01:25:26;;;;;;;3.05;1.23;;;;;;;16.47;77.64;98199.63;5051316;28;20025;-75
2021/08/25 01:28:05;;;;;;;1.65;1.25;;;;;;;16.44;75.93;98192.81;5052781;28;20096;-77
2021/08/25 01:30:33;;;;;;;1.52;1.42;;;;;;;16.53;73.81;98204.66;5050692;28;20024;-74
2021/08/25 01:33:00;;;;;;;1.17;1.08;;;;;;;16.46;75.14;98198.00;5043609;28;20068;-74
2021/08/25 01:35:37;;;;;;;1.48;1.30;;;;;;;16.54;75.03;98200.75;5050177;28;20052;-78
2021/08/25 01:38:05;;;;;;;2.83;1.83;;;;;;;16.51;72.79;98195.88;5050016;28;20603;-77
2021/08/25 01:40:33;;;;;;;2.47;1.67;;;;;;;16.53;70.69;98201.88;5050128;28;20029;-75
2021/08/25 01:42:59;;;;;;;1.98;1.25;;;;;;;16.54;69.97;98189.72;5049925;28;20029;-75
2021/08/25 01:45:25;;;;;;;2.83;2.22;;;;;;;16.58;70.40;98195.41;5050264;28;20025;-75
2021/08/25 01:47:50;;;;;;;5.45;2.00;;;;;;;16.54;68.63;98195.25;5050820;28;20535;-76
2021/08/25 01:50:16;;;;;;;4.97;2.00;;;;;;;16.53;67.08;98187.25;5051114;28;20378;-75
2021/08/25 01:52:41;;;;;;;2.53;1.80;;;;;;;16.51;67.49;98184.00;5050445;28;20043;-76
2021/08/25 01:55:07;;;;;;;2.65;2.00;;;;;;;16.47;68.04;98183.06;5050578;28;20032;-76
2021/08/25 01:57:33;;;;;;;2.75;1.92;;;;;;;16.43;67.49;98190.38;5050387;28;20037;-76
2021/08/25 01:59:58;;;;;;;3.25;2.25;;;;;;;16.53;67.52;98190.03;5050522;28;20024;-75
2021/08/25 02:02:23;;;;;;;2.95;1.98;;;;;;;16.40;67.43;98182.72;5048740;28;20481;-77
2021/08/25 02:04:49;;;;;;;2.72;2.10;;;;;;;16.40;65.52;98172.50;5049238;28;20043;-75
2021/08/25 02:07:15;;;;;;;3.65;2.40;;;;;;;16.49;66.04;98183.53;5049043;28;20440;-75
2021/08/25 02:09:40;;;;;;;2.83;1.95;;;;;;;16.42;65.28;98183.22;5049160;28;20033;-78
2021/08/25 02:12:06;;;;;;;3.97;2.30;;;;;;;16.49;64.47;98184.34;5050100;28;20035;-76
2021/08/25 02:14:31;;;;;;;5.25;2.67;;;;;;;16.42;65.28;98177.69;5048909;28;20125;-77
2021/08/25 02:16:57;;;;;;;2.63;1.73;;;;;;;16.45;65.01;98180.59;5049032;28;20386;-76
2021/08/25 02:19:22;;;;;;;3.50;2.03;;;;;;;16.54;65.02;98172.28;5050182;28;20025;-75
2021/08/25 02:21:48;;;;;;;2.85;2.30;;;;;;;16.57;65.34;98182.75;5050444;28;20480;-75
2021/08/25 02:24:13;;;;;;;2.83;2.20;;;;;;;16.47;64.67;98183.06;5049929;28;20025;-75
2021/08/25 02:26:38;;;;;;;6.25;2.42;;;;;;;16.48;64.42;98174.44;5050672;28;20025;-75
2021/08/25 02:29:04;;;;;;;2.97;2.05;;;;;;;16.29;64.86;98178.69;5050076;28;20021;-75
2021/08/25 02:31:30;;;;;;;3.13;2.60;;;;;;;16.26;67.38;98173.81;5050004;28;20496;-75
2021/08/25 02:33:56;;;;;;;2.42;2.20;;;;;;;16.15;70.70;98181.63;5049501;28;20033;-78
2021/08/25 02:36:21;;;;;;;1.83;1.60;;;;;;;16.19;72.52;98174.31;5050283;28;20025;-75
2021/08/25 02:38:47;;;;;;;7.38;2.33;;;;;;;16.09;73.60;98169.13;5050262;28;20113;-77
2021/08/25 02:41:15;;;;;;;2.42;1.85;;;;;;;16.15;73.69;98181.63;5050253;28;20048;-75
2021/08/25 02:43:40;;;;;;;2.60;2.00;;;;;;;16.00;74.00;98177.44;5049772;28;20017;-76
2021/08/25 02:46:06;;;;;;;2.47;1.48;;;;;;;16.13;73.75;98170.13;5050248;28;20472;-77
2021/08/25 02:48:32;;;;;;;2.78;2.00;;;;;;;16.12;73.63;98173.19;5047825;28;20037;-76
2021/08/25 02:50:58;;;;;;;2.75;1.98;;;;;;;16.02;74.07;98171.56;5051533;28;20025;-76
2021/08/25 02:53:24;;;;;;;1.88;1.60;;;;;;;16.19;73.17;98177.09;5053891;28;20059;-75
2021/08/25 02:55:49;;;;;;;3.13;2.42;;;;;;;16.04;74.60;98169.28;5053861;28;20397;-74
2021/08/25 02:58:15;;;;;;;2.47;1.75;;;;;;;15.97;74.86;98175.31;5054071;28;20032;-78
2021/08/25 03:00:41;;;;;;;2.78;1.65;;;;;;;15.90;74.80;98169.47;5054018;28;20025;-75
2021/08/25 03:03:06;;;;;;;2.80;1.98;;;;;;;15.83;75.03;98152.59;5053070;28;20063;-76
2021/08/25 03:05:32;;;;;;;3.17;2.35;;;;;;;15.70;76.23;98148.03;5053757;28;20079;-76
2021/08/25 03:07:57;;;;;;;2.88;1.92;;;;;;;15.67;75.58;98150.63;5053936;28;20375;-76
2021/08/25 03:10:23;;;;;;;5.43;2.58;;;;;;;15.61;78.01;98152.72;5053763;28;20078;-74
2021/08/25 03:12:48;;;;;;;3.00;2.17;;;;;;;15.57;79.90;98149.00;5051738;28;20534;-77
2021/08/25 03:15:14;;;;;;;4.68;2.13;;;;;;;15.45;80.73;98144.09;5053756;28;20037;-75
2021/08/25 03:17:40;;;;;;;2.53;1.85;;;;;;;15.38;82.32;98140.19;5053472;28;20024;-75
2021/08/25 03:20:08;;;;;;;4.32;2.13;;;;;;;15.39;82.66;98141.81;5053781;28;20108;-74
2021/08/25 03:22:34;;;;;;;2.72;2.38;;;;;;;15.28;83.58;98138.56;5053478;28;20029;-75
2021/08/25 03:25:00;;;;;;;8.68;2.22;;;;;;;15.15;83.80;98133.16;5035471;28;20032;-74
2021/08/25 03:27:26;;;;;;;2.58;2.08;;;;;;;15.15;84.01;98139.50;5053586;28;20033;-74
2021/08/25 03:29:51;;;;;;;2.70;1.92;;;;;;;15.36;83.82;98145.19;5053680;28;20032;-75
2021/08/25 03:32:17;;;;;;;2.38;1.77;;;;;;;15.22;83.61;98128.00;5053319;28;20465;-76
2021/08/25 03:34:44;;;;;;;4.75;2.13;;;;;;;15.17;82.35;98136.41;5034501;28;20059;-76
2021/08/25 03:37:09;;;;;;;3.65;2.38;;;;;;;14.95;83.63;98143.63;5053624;28;20140;-75
2021/08/25 03:39:34;;;;;;;3.80;2.45;;;;;;;14.90;84.98;98141.03;5055163;28;20125;-75
2021/08/25 03:42:00;;;;;;;2.85;1.83;;;;;;;14.94;85.30;98139.25;5040397;28;20031;-76
2021/08/25 03:44:25;;;;;;;3.50;2.28;;;;;;;14.81;85.71;98137.44;5053348;28;20021;-75
2021/08/25 03:46:51;;;;;;;3.50;2.40;;;;;;;14.77;86.06;98144.72;5052991;28;20064;-75
2021/08/25 03:49:16;;;;;;;3.88;2.60;;;;;;;14.78;85.65;98137.25;5053560;28;20448;-75
2021/08/25 03:51:42;;;;;;;4.07;2.55;;;;;;;14.80;85.86;98144.06;5053128;28;20028;-75
2021/08/25 03:54:07;;;;;;;3.28;2.78;;;;;;;14.76;85.24;98143.06;5052426;28;20043;-75
2021/08/25 03:56:33;;;;;;;2.28;2.08;;;;;;;14.70;85.42;98146.28;5052839;28;20052;-75
2021/08/25 03:58:58;;;;;;;4.22;2.50;;;;;;;14.68;85.40;98145.81;5052390;28;20029;-75
2021/08/25 04:01:24;;;;;;;2.65;2.30;;;;;;;14.65;85.91;98143.69;5052827;28;20025;-74
2021/08/25 04:03:49;;;;;;;3.70;2.85;;;;;;;14.63;86.02;98141.22;5052136;28;20033;-75
2021/08/25 04:06:15;;;;;;;5.97;2.40;;;;;;;14.79;85.57;98122.34;5052680;28;20033;-75
2021/08/25 04:08:40;;;;;;;2.88;2.42;;;;;;;15.05;84.90;98153.56;5043649;28;20036;-74
2021/08/25 04:11:06;;;;;;;6.68;3.15;;;;;;;14.86;86.59;98151.06;5051428;28;20444;-75
2021/08/25 04:13:31;;;;;;;3.45;2.47;;;;;;;14.70;87.65;98151.78;5052623;28;20029;-75
2021/08/25 04:15:56;;;;;;;3.55;2.53;;;;;;;14.70;87.94;98147.09;5052482;28;20135;-75
2021/08/25 04:18:22;;;;;;;4.60;3.08;;;;;;;14.87;86.67;98143.63;5051002;28;20037;-75
2021/08/25 04:20:47;;;;;;;6.25;2.92;;;;;;;14.78;86.64;98137.25;5053039;28;20033;-76
2021/08/25 04:23:13;;;;;;;4.03;3.45;;;;;;;15.00;86.19;98148.22;5052336;28;20033;-77
2021/08/25 04:25:41;;;;;;;2.65;2.30;;;;;;;15.08;86.24;98152.09;5050779;28;20036;-75
2021/08/25 04:28:08;;;;;;;4.22;3.17;;;;;;;15.03;85.78;98151.09;5051110;28;20029;-75
2021/08/25 04:30:33;;;;;;;3.47;2.58;;;;;;;15.07;86.05;98151.28;5051076;28;20063;-75
2021/08/25 04:33:00;;;;;;;4.13;3.10;;;;;;;15.27;84.42;98149.88;5052564;28;20024;-77
2021/08/25 04:35:25;;;;;;;4.00;2.88;;;;;;;14.98;85.89;98137.50;5052298;28;20029;-76
2021/08/25 04:37:50;;;;;;;7.82;3.05;;;;;;;14.99;86.14;98155.66;5052430;28;20036;-76
2021/08/25 04:40:16;;;;;;;5.88;3.42;;;;;;;15.10;85.97;98149.88;5050877;28;20025;-77
2021/08/25 04:42:41;;;;;;;6.45;3.33;;;;;;;15.11;86.02;98151.47;5052064;28;20025;-76
2021/08/25 04:45:07;;;;;;;5.10;2.90;;;;;;;14.83;85.86;98124.16;5051752;28;20424;-75
2021/08/25 04:47:34;;;;;;;4.82;2.75;;;;;;;14.91;86.39;98139.09;5052205;28;20029;-76
2021/08/25 04:50:00;;;;;;;6.53;3.80;;;;;;;14.91;87.11;98148.16;5051684;28;20045;-77
2021/08/25 04:52:25;;;;;;;4.95;3.28;;;;;;;14.92;87.15;98137.94;5051920;28;20028;-76
2021/08/25 04:54:51;;;;;;;8.32;3.80;;;;;;;14.93;87.20;98145.09;5051927;28;20493;-76
2021/08/25 04:57:16;;;;;;;3.45;3.13;;;;;;;14.82;87.66;98141.81;5051800;28;20082;-77
2021/08/25 04:59:41;;;;;;;4.18;3.03;;;;;;;14.69;88.03;98128.94;5052142;28;20079;-76
2021/08/25 05:02:07;;;;;;;4.45;3.38;;;;;;;14.79;87.80;98147.13;5051696;28;20057;-75
2021/08/25 05:04:32;;;;;;;5.93;3.38;;;;;;;14.71;87.00;98137.72;5051632;28;20461;-76
2021/08/25 05:06:57;;;;;;;4.05;3.33;;;;;;;14.71;87.64;98134.97;5051743;28;20033;-75
2021/08/25 05:09:23;;;;;;;4.55;3.03;;;;;;;14.93;87.19;98150.59;5050444;28;20070;-75
2021/08/25 05:11:48;;;;;;;6.45;3.15;;;;;;;14.93;86.69;98158.88;5051605;28;20029;-76
2021/08/25 05:14:14;;;;;;;3.67;2.90;;;;;;;14.97;85.42;98149.63;5050825;28;20028;-75
2021/08/25 05:16:39;;;;;;;4.75;3.75;;;;;;;15.16;84.20;98154.09;5051635;28;20447;-75
2021/08/25 05:19:04;;;;;;;4.10;3.28;;;;;;;15.24;83.65;98148.59;5051305;28;20474;-76
2021/08/25 05:21:30;;;;;;;6.20;2.83;;;;;;;15.33;83.64;98159.63;5051413;28;20061;-77
2021/08/25 05:23:56;;;;;;;4.63;2.78;;;;;;;15.38;82.24;98156.75;5051221;28;20048;-76
2021/08/25 05:26:22;;;;;;;9.10;3.63;;;;;;;15.50;80.69;98159.72;5050056;28;20029;-74
2021/08/25 05:28:47;;;;;;;5.18;2.83;;;;;;;15.52;78.29;98154.66;5049764;28;20082;-75
2021/08/25 05:31:13;;;;;;;8.02;3.33;;;;;;;15.61;79.93;98160.19;5051247;28;20111;-76
2021/08/25 05:33:38;;;;;;;6.20;2.80;;;;;;;15.62;79.85;98161.81;5051104;28;20082;-77
2021/08/25 05:36:03;;;;;;;4.32;3.00;;;;;;;15.82;74.97;98175.78;5051234;28;20489;-76
2021/08/25 05:38:29;;;;;;;9.38;3.15;;;;;;;15.86;72.15;98171.25;5049643;28;20492;-77
2021/08/25 05:40:54;;;;;;;4.30;2.92;;;;;;;16.00;72.32;98174.66;5051551;28;20025;-75
2021/08/25 05:43:20;;;;;;;4.28;3.17;;;;;;;16.11;70.47;98188.94;5051176;28;20029;-75
2021/08/25 05:45:45;;;;;;;5.03;2.72;;;;;;;16.18;68.19;98163.59;5050847;28;20071;-74
2021/08/25 05:48:11;;;;;;;3.70;2.63;;;;;;;16.21;68.10;98183.09;5050762;28;20608;-76
2021/08/25 05:50:37;;;;;;;3.22;2.33;;;;;;;16.10;66.96;98184.53;5050975;28;20025;-74
2021/08/25 05:53:02;;;;;;;4.05;2.20;;;;;;;16.09;67.19;98191.22;5050975;28;20025;-75
2021/08/25 05:55:28;;;;;;;4.00;2.33;;;;;;;16.12;65.91;98187.81;5050400;28;20832;-74
2021/08/25 05:57:53;;;;;;;2.88;2.50;;;;;;;16.25;66.80;98194.28;5059587;28;20029;-77
2021/08/25 06:00:20;;;;;;;3.28;2.63;;;;;;;16.25;66.17;98186.00;5054628;28;20075;-75
2021/08/25 06:02:45;;;;;;;2.63;2.28;;;;;;;16.22;65.92;98181.16;5049583;28;20440;-76
2021/08/25 06:05:12;;;;;;;4.50;3.25;;;;;;;16.46;66.12;98181.41;5050997;28;20029;-76
2021/08/25 06:07:38;;;;;;;3.30;2.38;;;;;;;16.47;64.91;98183.06;5050908;28;20116;-75
2021/08/25 06:10:04;;;;;;;5.45;2.85;;;;;;;16.49;64.93;98191.81;5049464;28;20545;-77
2021/08/25 06:12:30;;;;;;;3.72;2.65;;;;;;;16.46;65.07;98184.19;5050490;28;20021;-76
2021/08/25 06:14:55;;;;;;;2.85;2.55;;;;;;;16.65;65.12;98168.09;5053406;28;20043;-76
2021/08/25 06:17:21;;;;;;;4.40;2.88;;;;;;;16.84;64.51;98181.50;5050956;28;20393;-76
2021/08/25 06:19:46;;;;;;;3.25;2.42;;;;;;;16.84;64.68;98179.56;5049628;28;20025;-76
2021/08/25 06:22:13;;;;;;;4.82;2.90;;;;;;;17.03;64.04;98179.97;5049377;28;20040;-75
2021/08/25 06:24:39;;;;;;;4.93;2.28;;;;;;;17.08;62.76;98177.03;5050574;28;20025;-77
2021/08/25 06:27:04;;;;;;;3.60;2.63;;;;;;;17.35;62.39;98183.25;5053856;28;20033;-76
2021/08/25 06:29:30;;;;;;;4.85;2.83;;;;;;;17.81;60.79;98188.66;5053376;28;20087;-75
2021/08/25 06:31:56;;;;;;;8.10;3.22;;;;;;;18.10;59.27;98191.38;5053484;28;20482;-75
2021/08/25 06:34:21;;;;;;;5.28;2.80;;;;;;;18.16;57.84;98197.53;5054637;28;20474;-78
2021/08/25 06:36:46;;;;;;;5.00;2.58;;;;;;;18.19;57.83;98183.81;5053021;28;20039;-76
2021/08/25 06:39:12;;;;;;;3.42;2.28;;;;;;;18.12;57.22;98183.53;5054375;28;20025;-76
2021/08/25 06:41:37;;;;;;;3.65;2.63;;;;;;;18.05;57.00;98188.81;5054511;28;20120;-75
2021/08/25 06:44:03;;;;;;;3.28;2.55;;;;;;;18.18;57.23;98193.25;5054586;28;20041;-76
2021/08/25 06:46:29;;;;;;;7.13;2.75;;;;;;;18.02;57.48;98186.72;5054275;28;20119;-76
2021/08/25 06:48:54;;;;;;;4.28;2.42;;;;;;;18.15;57.81;98193.13;5054109;28;20490;-75
2021/08/25 06:51:20;;;;;;;4.68;2.63;;;;;;;18.14;56.58;98197.84;5054390;28;20029;-75
2021/08/25 06:53:45;;;;;;;4.20;2.50;;;;;;;18.10;57.75;98190.56;5052538;28;20039;-75
2021/08/25 06:56:10;;;;;;;4.20;2.55;;;;;;;18.40;55.48;98199.56;5054560;28;20068;-75
2021/08/25 06:58:36;;;;;;;4.07;2.00;;;;;;;18.08;56.45;98182.59;5054118;28;20115;-75
2021/08/25 07:01:01;;;;;;;6.55;2.05;;;;;;;18.44;55.33;98193.03;5054479;28;20116;-76
2021/08/25 07:03:27;;;;;;;4.18;2.10;;;;;;;18.72;54.55;98196.03;5053783;28;20029;-77
2021/08/25 07:05:52;;;;;;;2.95;2.38;;;;;;;18.50;55.35;98188.09;5053845;28;20025;-76
2021/08/25 07:08:18;;;;;;;8.43;2.95;;;;;;;18.61;55.48;98189.28;5052301;28;20029;-75
2021/08/25 07:10:43;;;;;;;2.83;2.05;;;;;;;18.28;55.46;98180.13;5053947;28;20499;-76
2021/08/25 07:13:08;;;;;;;4.53;2.50;;;;;;;18.86;53.81;98190.97;5053752;28;20039;-76
2021/08/25 07:15:34;;;;;;;2.97;2.20;;;;;;;19.13;53.70;98190.34;5053712;28;20045;-76
2021/08/25 07:17:59;;;;;;;4.15;2.53;;;;;;;19.67;52.12;98177.03;5053980;28;20029;-75
2021/08/25 07:20:25;;;;;;;3.22;2.45;;;;;;;19.40;52.57;98199.13;5053714;28;20036;-75
2021/08/25 07:22:50;;;;;;;4.03;2.58;;;;;;;20.07;50.73;98187.38;5053592;28;20472;-76
2021/08/25 07:25:16;;;;;;;4.85;3.05;;;;;;;20.95;48.58;98181.56;5052316;28;20120;-75
2021/08/25 07:27:43;;;;;;;4.00;2.47;;;;;;;21.68;46.42;98183.75;5035518;28;20035;-74
2021/08/25 07:30:11;;;;;;;6.53;2.38;;;;;;;22.27;45.84;98192.69;5052516;28;20052;-74
2021/08/25 07:32:39;;;;;;;3.67;2.42;;;;;;;21.66;46.22;98189.72;5053855;28;20025;-77
2021/08/25 07:35:06;;;;;;;3.50;1.98;;;;;;;21.67;46.09;98191.34;5053776;28;20174;-75
2021/08/25 07:37:31;;;;;;;4.28;2.75;;;;;;;20.80;47.81;98173.97;5053295;28;20029;-76
2021/08/25 07:39:57;;;;;;;3.35;2.70;;;;;;;20.58;48.32;98177.38;5053551;28;20389;-75
2021/08/25 07:42:22;;;;;;;5.85;2.83;;;;;;;20.57;48.33;98178.53;5049828;28;20021;-74
2021/08/25 07:44:48;;;;;;;2.72;2.30;;;;;;;21.08;47.24;98177.50;5051704;28;20128;-74
2021/08/25 07:47:13;;;;;;;3.00;2.00;;;;;;;22.67;44.62;98184.00;5053776;28;20032;-74
2021/08/25 07:49:38;;;;;;;6.93;2.60;;;;;;;22.13;43.51;98183.22;5053936;28;20519;-75
2021/08/25 07:52:04;;;;;;;4.72;2.92;;;;;;;21.95;43.88;98163.34;5052003;28;20032;-77
2021/08/25 07:54:30;;;;;;;3.70;2.80;;;;;;;22.57;43.07;98183.72;5053729;28;20087;-74
2021/08/25 07:56:56;;;;;;;5.13;3.15;;;;;;;23.18;41.42;98172.56;5053785;28;20033;-75
2021/08/25 07:59:21;;;;;;;3.80;2.53;;;;;;;24.29;39.02;98174.69;5053675;28;20439;-75
2021/08/25 08:01:46;;;;;;;2.42;2.03;;;;;;;23.83;39.94;98176.00;5053752;28;20025;-76
2021/08/25 08:04:12;;;;;;;3.28;2.70;;;;;;;23.53;40.16;98180.72;5053196;28;20469;-74
2021/08/25 08:06:37;;;;;;;8.38;3.05;;;;;;;21.83;43.25;98172.59;5052596;28;20140;-76
2021/08/25 08:09:03;;;;;;;5.93;2.30;;;;;;;21.82;43.91;98170.19;5056354;28;20137;-75
2021/08/25 08:11:28;;;;;;;7.75;2.53;;;;;;;23.40;41.26;98183.72;5057580;28;21045;-75
2021/08/25 08:13:54;;;;;;;3.97;2.85;;;;;;;22.38;42.18;98177.00;5053076;28;20329;-75
2021/08/25 08:16:21;;;;;;;3.92;2.58;;;;;;;23.36;40.72;98168.88;5053119;28;20512;-75
2021/08/25 08:21:32;;;;;;;4.35;2.88;;;;;;;23.91;38.95;98160.94;5053415;28;20479;-74
2021/08/25 08:23:58;;;;;;;3.10;2.25;;;;;;;24.42;38.13;98173.25;5053329;28;20033;-75
2021/08/25 08:26:28;;;;;;;3.63;2.28;;;;;;;24.18;38.85;98170.97;5051883;28;20032;-75
2021/08/25 08:28:55;;;;;;;4.45;2.60;;;;;;;22.92;40.13;98162.13;5053051;28;20025;-74
2021/08/25 08:31:21;;;;;;;4.60;2.03;;;;;;;23.63;39.01;98158.56;5053206;28;20499;-78
2021/08/25 08:33:46;;;;;;;3.05;2.00;;;;;;;25.40;36.02;98161.50;5052316;28;20028;-75
2021/08/25 08:36:11;;;;;;;2.50;2.03;;;;;;;25.05;36.03;98172.38;5052667;28;20044;-77
2021/08/25 08:38:37;;;;;;;3.53;2.53;;;;;;;25.59;34.74;98179.28;5054648;28;20125;-76
2021/08/25 08:41:02;;;;;;;5.43;2.50;;;;;;;24.17;37.19;98168.53;5057641;28;20025;-75
2021/08/25 08:43:29;;;;;;;3.05;2.15;;;;;;;23.98;38.48;98164.66;5059433;28;20037;-75
2021/08/25 08:45:55;;;;;;;3.30;2.50;;;;;;;24.96;36.52;98169.09;5051787;28;20029;-74
2021/08/25 08:48:20;;;;;;;3.95;2.72;;;;;;;24.35;37.40;98161.16;5051657;28;20371;-74
2021/08/25 08:50:46;;;;;;;4.28;3.08;;;;;;;24.75;37.63;98168.81;5051893;28;20033;-75
2021/08/25 08:53:19;;;;;;;4.15;2.47;;;;;;;25.35;36.25;98175.03;5050957;28;20021;-75
2021/08/25 08:55:45;;;;;;;3.95;2.45;;;;;;;24.47;36.41;98158.09;5052607;28;20037;-77
2021/08/25 08:58:10;;;;;;;4.50;2.42;;;;;;;24.06;37.58;98173.94;5055562;28;20159;-75
2021/08/25 09:00:38;;;;;;;4.63;2.35;;;;;;;25.20;35.49;98165.72;5053325;28;20428;-75
2021/08/25 09:03:18;;;;;;;5.82;2.78;;;;;;;25.80;34.79;98166.22;5052872;28;20120;-75
2021/08/25 09:05:44;;;;;;;3.38;1.98;;;;;;;25.80;34.58;98159.78;5052810;28;20041;-75
2021/08/25 09:08:09;;;;;;;5.95;2.92;;;;;;;26.59;33.21;98160.59;5052610;28;20056;-75
2021/08/25 09:10:37;;;;;;;4.32;2.00;;;;;;;25.99;34.19;98159.53;5050155;28;20401;-77
2021/08/25 09:13:04;;;;;;;3.08;2.47;;;;;;;24.75;35.69;98146.41;5050246;28;20017;-75
2021/08/25 09:15:34;;;;;;;3.25;2.50;;;;;;;25.84;34.21;98144.63;5052189;28;20055;-75
2021/08/25 09:18:00;;;;;;;4.30;2.60;;;;;;;25.70;33.17;98140.91;5051792;28;20032;-76
2021/08/25 09:20:28;;;;;;;3.95;2.50;;;;;;;25.98;34.12;98149.50;5052357;28;20021;-77
2021/08/25 09:23:13;;;;;;;3.60;2.55;;;;;;;27.70;30.81;98153.16;5051754;28;20017;-77
2021/08/25 09:25:39;;;;;;;3.30;2.50;;;;;;;27.36;30.52;98153.56;5052021;28;20052;-77
2021/08/25 09:28:07;;;;;;;9.18;2.78;;;;;;;25.49;33.98;98142.38;5050732;28;20377;-77
2021/08/25 09:31:06;;;;;;;4.80;3.03;;;;;;;25.11;34.06;98136.41;5050555;28;20052;-76
2021/08/25 09:33:34;;;;;;;4.93;3.10;;;;;;;24.88;34.88;98131.00;5040151;28;20048;-75
2021/08/25 09:36:11;;;;;;;5.30;2.75;;;;;;;25.88;33.67;98130.59;5051603;28;20827;-76
2021/08/25 09:38:38;;;;;;;4.40;2.90;;;;;;;25.27;34.48;98128.56;5048113;28;20025;-76
2021/08/25 09:41:11;;;;;;;4.10;3.35;;;;;;;25.02;34.73;98125.53;5046401;28;20025;-76
2021/08/25 09:43:42;;;;;;;4.50;2.58;;;;;;;25.04;35.17;98142.75;5053490;28;20031;-75
2021/08/25 09:46:21;;;;;;;5.18;3.40;;;;;;;26.13;32.52;98137.13;5050261;28;20025;-75
2021/08/25 09:48:51;;;;;;;5.38;2.45;;;;;;;25.27;33.60;98129.38;5051539;28;20045;-76
2021/08/25 09:51:26;;;;;;;4.10;2.75;;;;;;;25.10;34.82;98129.19;5050053;28;20029;-77
2021/08/25 09:54:04;;;;;;;5.47;2.15;;;;;;;25.43;34.78;98132.69;5049638;28;20071;-76
2021/08/25 09:56:34;;;;;;;2.15;1.88;;;;;;;27.24;31.14;98128.66;5050273;28;20029;-76
2021/08/25 09:59:01;;;;;;;4.68;3.20;;;;;;;26.04;33.61;98117.88;5049563;28;20052;-77
2021/08/25 10:01:27;;;;;;;4.43;2.97;;;;;;;25.14;34.75;98116.84;5051229;28;20393;-77
2021/08/25 10:03:53;;;;;;;4.32;3.22;;;;;;;24.62;35.96;98111.53;5051566;28;20075;-76
2021/08/25 10:06:21;;;;;;;5.18;3.08;;;;;;;26.40;32.78;98113.25;5051158;28;20362;-76
2021/08/25 10:08:47;;;;;;;3.92;2.83;;;;;;;24.26;36.70;98113.94;5050465;28;20037;-74
2021/08/25 10:11:14;;;;;;;3.63;2.97;;;;;;;23.80;37.44;98098.53;5032977;28;20060;-77
2021/08/25 10:13:40;;;;;;;3.45;2.30;;;;;;;22.76;39.33;98098.06;5045710;28;20071;-77
2021/08/25 10:16:13;;;;;;;4.10;2.42;;;;;;;22.84;40.07;98087.81;5050565;28;20083;-77
2021/08/25 10:18:42;;;;;;;3.67;2.95;;;;;;;23.36;38.63;98070.34;5048813;28;20087;-75
2021/08/25 10:21:29;;;;;;;3.88;2.58;;;;;;;24.61;36.35;98084.72;5045525;28;20059;-75
2021/08/25 10:23:58;;;;;;;7.05;3.17;;;;;;;25.04;35.63;98093.16;5049770;28;20029;-75
2021/08/25 10:26:24;;;;;;;5.03;3.13;;;;;;;25.49;34.21;98086.34;5055553;28;20060;-77
2021/08/25 10:28:58;;;;;;;4.35;3.17;;;;;;;25.16;35.16;98089.25;5061868;28;20021;-81
2021/08/25 10:31:44;;;;;;;6.28;2.53;;;;;;;24.83;35.66;98092.19;5052352;28;20021;-78
2021/08/25 10:34:15;;;;;;;4.72;2.30;;;;;;;24.77;35.41;98088.09;5049035;28;20477;-74
2021/08/25 10:36:43;;;;;;;5.00;2.95;;;;;;;24.92;35.52;98084.25;5050317;28;20037;-77
2021/08/25 10:39:37;;;;;;;5.47;3.60;;;;;;;25.07;35.12;98069.19;5049867;28;20437;-76
2021/08/25 10:42:06;;;;;;;4.45;2.92;;;;;;;24.27;36.34;98073.59;5034836;28;20166;-77
2021/08/25 10:44:40;;;;;;;3.63;2.38;;;;;;;25.39;35.02;98075.03;5029145;28;20078;-74
2021/08/25 10:47:14;;;;;;;3.83;2.88;;;;;;;27.04;32.50;98072.06;5045907;28;20112;-76
2021/08/25 10:49:45;;;;;;;4.55;2.63;;;;;;;25.97;33.44;98074.97;5038584;28;20068;-76
2021/08/25 10:52:13;;;;;;;5.57;2.65;;;;;;;24.88;36.43;98064.63;5043962;28;20029;-76
2021/08/25 10:54:39;;;;;;;4.07;2.63;;;;;;;24.71;36.46;98061.66;5041880;28;20039;-75
2021/08/25 10:57:13;;;;;;;4.43;2.78;;;;;;;24.14;37.27;98061.06;5049210;28;20371;-78
2021/08/25 10:59:39;;;;;;;3.83;2.80;;;;;;;23.11;39.52;98053.22;5047016;28;20025;-76
2021/08/25 11:02:04;;;;;;;4.68;2.50;;;;;;;22.97;39.68;98041.00;5053996;28;20036;-78
2021/08/25 11:04:30;;;;;;;5.65;2.70;;;;;;;22.09;41.04;98052.16;5048496;28;20047;-75
2021/08/25 11:07:05;;;;;;;8.30;2.75;;;;;;;22.19;41.30;98043.22;5048738;28;20478;-76
2021/08/25 11:09:36;;;;;;;5.65;3.22;;;;;;;22.36;41.80;98037.19;5047776;28;20017;-76
2021/08/25 11:12:22;;;;;;;7.65;2.85;;;;;;;21.86;41.87;98031.78;5047618;28;20024;-76
2021/08/25 11:14:52;;;;;;;4.15;2.55;;;;;;;22.23;41.35;98027.38;5050485;28;20028;-77
2021/08/25 11:17:31;;;;;;;8.90;3.15;;;;;;;22.16;41.66;98030.03;5052751;28;20029;-74
2021/08/25 11:20:07;;;;;;;3.58;2.58;;;;;;;22.47;41.30;98023.41;5049207;28;20025;-77
2021/08/25 11:22:38;;;;;;;3.95;2.33;;;;;;;21.91;41.94;98017.59;5050528;28;20045;-76
2021/08/25 11:25:03;;;;;;;4.13;2.90;;;;;;;22.39;41.52;98016.91;5049729;28;20025;-76
2021/08/25 11:27:30;;;;;;;4.57;3.13;;;;;;;22.25;41.64;98013.88;5034894;28;20021;-77
2021/08/25 11:30:10;;;;;;;3.63;2.47;;;;;;;22.60;40.90;98010.09;5051718;28;20052;-76
2021/08/25 11:32:54;;;;;;;4.20;2.90;;;;;;;22.50;41.22;98005.13;5052592;28;20033;-75
2021/08/25 11:35:35;;;;;;;5.05;3.33;;;;;;;22.49;41.81;98017.47;5052557;28;20079;-75
2021/08/25 11:38:02;;;;;;;5.97;2.97;;;;;;;22.49;41.84;98015.47;5048981;28;20025;-76